createdAt,value
2018-03-07T00:00:40.649Z,933.99
2018-03-07T00:01:40.717Z,934.05
2018-03-07T00:02:40.680Z,934.01
2018-03-07T00:03:40.696Z,934.01
2018-03-07T00:04:40.712Z,934.04
2018-03-07T00:05:40.727Z,934.03
2018-03-07T00:06:40.745Z,934.06
2018-03-07T00:07:40.758Z,934.04
2018-03-07T00:08:40.775Z,934.08
2018-03-07T00:09:40.791Z,934.08
2018-03-07T00:10:40.806Z,934.04
2018-03-07T00:11:40.821Z,934.05
2018-03-07T00:12:40.837Z,934.09
2018-03-07T00:13:40.853Z,934.11
2018-03-07T00:14:40.869Z,934.1
2018-03-07T00:15:40.885Z,934.09
2018-03-07T00:16:40.951Z,934.12
2018-03-07T00:17:40.916Z,934.11
2018-03-07T00:18:40.933Z,934.13
2018-03-07T00:19:40.951Z,934.13
2018-03-07T00:20:40.964Z,934.12
2018-03-07T00:21:40.980Z,934.08
2018-03-07T00:22:40.994Z,934.1
2018-03-07T00:23:41.065Z,934.12
2018-03-07T00:24:41.027Z,934.12
2018-03-07T00:25:41.042Z,934.14
2018-03-07T00:26:41.058Z,934.12
2018-03-07T00:27:41.072Z,934.11
2018-03-07T00:28:41.090Z,934.11
2018-03-07T00:29:41.105Z,934.12
2018-03-07T00:30:41.121Z,934.16
2018-03-07T00:31:41.187Z,934.15
2018-03-07T00:32:41.152Z,934.14
2018-03-07T00:33:41.168Z,934.12
2018-03-07T00:34:41.183Z,934.17
2018-03-07T00:35:41.198Z,934.18
2018-03-07T00:36:41.214Z,934.2
2018-03-07T00:37:41.229Z,934.22
2018-03-07T00:38:41.244Z,934.26
2018-03-07T00:39:41.260Z,934.25
2018-03-07T00:40:41.276Z,934.23
2018-03-07T00:41:41.292Z,934.21
2018-03-07T00:42:41.310Z,934.26
2018-03-07T00:43:41.325Z,934.26
2018-03-07T00:44:41.339Z,934.28
2018-03-07T00:45:41.353Z,934.25
2018-03-07T00:46:41.420Z,934.3
2018-03-07T00:47:41.385Z,934.27
2018-03-07T00:48:41.401Z,934.29
2018-03-07T00:49:41.418Z,934.3
2018-03-07T00:50:41.432Z,934.32
2018-03-07T00:51:41.452Z,934.29
2018-03-07T00:52:41.463Z,934.31
2018-03-07T00:53:41.480Z,934.35
2018-03-07T00:54:41.494Z,934.35
2018-03-07T00:55:41.510Z,934.34
2018-03-07T00:56:41.525Z,934.31
2018-03-07T00:57:41.541Z,934.31
2018-03-07T00:58:41.557Z,934.35
2018-03-07T00:59:41.572Z,934.3
2018-03-07T01:00:41.588Z,934.3
2018-03-07T01:01:41.655Z,934.28
2018-03-07T01:02:41.618Z,934.29
2018-03-07T01:03:41.644Z,934.31
2018-03-07T01:04:41.651Z,934.32
2018-03-07T01:05:41.666Z,934.31
2018-03-07T01:06:41.680Z,934.31
2018-03-07T01:07:41.696Z,934.32
2018-03-07T01:08:41.713Z,934.32
2018-03-07T01:09:41.730Z,934.33
2018-03-07T01:10:41.744Z,934.31
2018-03-07T01:11:41.759Z,934.31
2018-03-07T01:12:41.776Z,934.3
2018-03-07T01:13:41.794Z,934.31
2018-03-07T01:14:41.805Z,934.27
2018-03-07T01:15:41.824Z,934.32
2018-03-07T01:16:41.887Z,934.28
2018-03-07T01:17:41.850Z,934.27
2018-03-07T01:18:41.867Z,934.29
2018-03-07T01:19:41.881Z,934.23
2018-03-07T01:20:41.896Z,934.29
2018-03-07T01:21:41.912Z,934.26
2018-03-07T01:22:41.928Z,934.28
2018-03-07T01:23:41.944Z,934.25
2018-03-07T01:24:41.959Z,934.28
2018-03-07T01:25:41.975Z,934.29
2018-03-07T01:26:42.091Z,934.28
2018-03-07T01:27:42.007Z,934.23
2018-03-07T01:28:42.020Z,934.31
2018-03-07T01:29:42.038Z,934.27
2018-03-07T01:30:42.052Z,934.26
2018-03-07T01:31:42.118Z,934.22
2018-03-07T01:32:42.082Z,934.23
2018-03-07T01:33:42.097Z,934.24
2018-03-07T01:34:42.115Z,934.21
2018-03-07T01:35:42.143Z,934.21
2018-03-07T01:36:42.143Z,934.19
2018-03-07T01:37:42.165Z,934.21
2018-03-07T01:38:42.177Z,934.19
2018-03-07T01:39:42.189Z,934.16
2018-03-07T01:40:42.205Z,934.15
2018-03-07T01:41:42.221Z,934.14
2018-03-07T01:42:42.236Z,934.18
2018-03-07T01:43:42.251Z,934.19
2018-03-07T01:44:42.267Z,934.17
2018-03-07T01:45:42.284Z,934.2
2018-03-07T01:46:42.297Z,934.19
2018-03-07T01:47:42.316Z,934.13
2018-03-07T01:48:42.327Z,934.13
2018-03-07T01:49:42.344Z,934.12
2018-03-07T01:50:42.429Z,934.17
2018-03-07T01:51:42.374Z,934.14
2018-03-07T01:52:42.391Z,934.16
2018-03-07T01:53:42.404Z,934.13
2018-03-07T01:54:42.420Z,934.16
2018-03-07T01:55:42.434Z,934.09
2018-03-07T01:56:42.481Z,934.14
2018-03-07T01:57:42.467Z,934.09
2018-03-07T01:58:42.482Z,934.1
2018-03-07T01:59:42.496Z,934.08
2018-03-07T02:00:42.511Z,934.09
2018-03-07T02:01:42.527Z,934.12
2018-03-07T02:02:42.543Z,934.12
2018-03-07T02:05:29.745Z,934.11
2018-03-07T02:21:43.758Z,934.2
2018-03-07T02:22:43.774Z,934.22
2018-03-07T02:23:43.789Z,934.19
2018-03-07T02:24:43.803Z,934.22
2018-03-07T02:25:43.818Z,934.22
2018-03-07T02:26:43.833Z,934.18
2018-03-07T02:27:43.849Z,934.15
2018-03-07T02:28:43.863Z,934.22
2018-03-07T02:29:43.878Z,934.21
2018-03-07T02:30:43.901Z,934.17
2018-03-07T02:31:43.914Z,934.13
2018-03-07T02:32:43.928Z,934.17
2018-03-07T02:33:43.942Z,934.17
2018-03-07T02:34:43.956Z,934.15
2018-03-07T02:35:43.970Z,934.14
2018-03-07T02:36:44.036Z,934.17
2018-03-07T02:37:43.999Z,934.15
2018-03-07T02:38:44.016Z,934.16
2018-03-07T02:39:44.031Z,934.14
2018-03-07T02:40:44.046Z,934.19
2018-03-07T02:41:44.060Z,934.2
2018-03-07T02:42:44.076Z,934.16
2018-03-07T02:43:44.092Z,934.19
2018-03-07T02:44:44.105Z,934.14
2018-03-07T02:45:44.127Z,934.2
2018-03-07T02:46:44.137Z,934.13
2018-03-07T02:47:44.152Z,934.2
2018-03-07T02:48:44.169Z,934.13
2018-03-07T02:49:44.183Z,934.17
2018-03-07T02:50:44.197Z,934.23
2018-03-07T02:51:44.264Z,934.26
2018-03-07T02:52:44.228Z,934.22
2018-03-07T02:53:44.244Z,934.19
2018-03-07T02:54:44.260Z,934.23
2018-03-07T02:55:44.280Z,934.26
2018-03-07T02:56:44.291Z,934.28
2018-03-07T02:57:44.304Z,934.24
2018-03-07T02:58:44.321Z,934.21
2018-03-07T02:59:44.338Z,934.27
2018-03-07T03:00:44.352Z,934.25
2018-03-07T03:01:44.368Z,934.28
2018-03-07T03:02:44.399Z,934.29
2018-03-07T03:03:44.398Z,934.33
2018-03-07T03:04:44.417Z,934.3
2018-03-07T03:05:44.429Z,934.28
2018-03-07T03:06:44.495Z,934.3
2018-03-07T03:07:44.461Z,934.33
2018-03-07T03:08:44.475Z,934.33
2018-03-07T03:09:44.490Z,934.31
2018-03-07T03:10:44.506Z,934.33
2018-03-07T03:11:44.521Z,934.34
2018-03-07T03:12:44.536Z,934.34
2018-03-07T03:13:44.553Z,934.33
2018-03-07T03:14:44.573Z,934.33
2018-03-07T03:15:44.584Z,934.33
2018-03-07T03:16:44.597Z,934.34
2018-03-07T03:17:44.614Z,934.31
2018-03-07T03:18:44.629Z,934.33
2018-03-07T03:19:44.644Z,934.37
2018-03-07T03:20:44.660Z,934.33
2018-03-07T03:21:44.725Z,934.37
2018-03-07T03:22:44.689Z,934.35
2018-03-07T03:23:44.712Z,934.38
2018-03-07T03:24:44.723Z,934.36
2018-03-07T03:25:44.736Z,934.35
2018-03-07T03:26:44.752Z,934.35
2018-03-07T03:27:44.768Z,934.39
2018-03-07T03:28:44.783Z,934.32
2018-03-07T03:29:44.800Z,934.3
2018-03-07T03:30:44.816Z,934.36
2018-03-07T03:31:44.835Z,934.34
2018-03-07T03:32:44.846Z,934.33
2018-03-07T03:33:44.861Z,934.35
2018-03-07T03:34:44.877Z,934.37
2018-03-07T03:35:44.893Z,934.35
2018-03-07T03:36:44.959Z,934.37
2018-03-07T03:37:44.927Z,934.34
2018-03-07T03:38:44.944Z,934.36
2018-03-07T03:39:44.955Z,934.36
2018-03-07T03:40:44.969Z,934.38
2018-03-07T03:41:44.985Z,934.42
2018-03-07T03:42:44.999Z,934.45
2018-03-07T03:43:45.017Z,934.43
2018-03-07T03:44:45.032Z,934.43
2018-03-07T03:45:45.061Z,934.44
2018-03-07T03:46:45.115Z,934.46
2018-03-07T03:47:45.079Z,934.43
2018-03-07T03:48:45.094Z,934.46
2018-03-07T03:49:45.107Z,934.45
2018-03-07T03:50:45.125Z,934.49
2018-03-07T03:51:45.139Z,934.45
2018-03-07T03:52:45.154Z,934.45
2018-03-07T03:53:45.171Z,934.44
2018-03-07T03:54:45.186Z,934.41
2018-03-07T03:55:45.200Z,934.39
2018-03-07T03:56:45.217Z,934.4
2018-03-07T03:57:45.232Z,934.41
2018-03-07T03:58:45.250Z,934.45
2018-03-07T03:59:45.263Z,934.47
2018-03-07T04:00:45.278Z,934.47
2018-03-07T04:01:45.347Z,934.48
2018-03-07T04:02:45.310Z,934.53
2018-03-07T04:03:45.325Z,934.53
2018-03-07T04:04:45.341Z,934.52
2018-03-07T04:05:45.356Z,934.54
2018-03-07T04:06:45.370Z,934.56
2018-03-07T04:07:45.388Z,934.55
2018-03-07T04:08:45.402Z,934.53
2018-03-07T04:09:45.419Z,934.55
2018-03-07T04:10:45.432Z,934.57
2018-03-07T04:11:45.447Z,934.58
2018-03-07T04:12:45.463Z,934.56
2018-03-07T04:13:45.478Z,934.57
2018-03-07T04:14:45.494Z,934.62
2018-03-07T04:15:45.517Z,934.65
2018-03-07T04:16:45.575Z,934.68
2018-03-07T04:17:45.540Z,934.71
2018-03-07T04:18:45.555Z,934.67
2018-03-07T04:19:45.571Z,934.67
2018-03-07T04:20:45.588Z,934.68
2018-03-07T04:21:45.603Z,934.73
2018-03-07T04:22:45.618Z,934.71
2018-03-07T04:23:45.632Z,934.68
2018-03-07T04:24:45.648Z,934.74
2018-03-07T04:25:45.663Z,934.72
2018-03-07T04:26:45.678Z,934.75
2018-03-07T04:27:45.694Z,934.74
2018-03-07T04:28:45.709Z,934.74
2018-03-07T04:29:45.725Z,934.74
2018-03-07T04:30:45.740Z,934.71
2018-03-07T04:31:45.806Z,934.78
2018-03-07T04:32:45.769Z,934.79
2018-03-07T04:33:45.785Z,934.79
2018-03-07T04:34:45.802Z,934.79
2018-03-07T04:35:45.815Z,934.77
2018-03-07T04:36:45.830Z,934.78
2018-03-07T04:37:45.868Z,934.75
2018-03-07T04:38:45.862Z,934.8
2018-03-07T04:39:45.877Z,934.77
2018-03-07T04:40:45.910Z,934.81
2018-03-07T04:41:45.960Z,934.79
2018-03-07T04:42:45.926Z,934.81
2018-03-07T04:43:45.939Z,934.83
2018-03-07T04:44:45.958Z,934.83
2018-03-07T04:45:45.970Z,934.83
2018-03-07T04:46:45.983Z,934.84
2018-03-07T04:47:46.001Z,934.83
2018-03-07T04:48:46.016Z,934.84
2018-03-07T04:49:46.031Z,934.82
2018-03-07T04:50:46.046Z,934.86
2018-03-07T04:51:46.062Z,934.87
2018-03-07T04:52:46.078Z,934.88
2018-03-07T04:53:46.093Z,934.84
2018-03-07T04:54:46.107Z,934.89
2018-03-07T04:55:46.125Z,934.92
2018-03-07T04:56:46.189Z,934.86
2018-03-07T04:57:46.154Z,934.94
2018-03-07T04:58:46.168Z,934.95
2018-03-07T04:59:46.184Z,934.95
2018-03-07T05:00:46.199Z,934.91
2018-03-07T05:01:46.215Z,934.95
2018-03-07T05:02:46.313Z,934.92
2018-03-07T05:03:46.247Z,934.97
2018-03-07T05:04:46.274Z,934.96
2018-03-07T05:05:46.277Z,934.95
2018-03-07T05:06:46.296Z,934.98
2018-03-07T05:07:46.309Z,935
2018-03-07T05:08:46.322Z,935.02
2018-03-07T05:09:46.339Z,935.06
2018-03-07T05:10:46.353Z,935.08
2018-03-07T05:11:46.420Z,935.13
2018-03-07T05:12:46.384Z,935.09
2018-03-07T05:13:46.401Z,935.13
2018-03-07T05:14:46.416Z,935.12
2018-03-07T05:15:46.430Z,935.11
2018-03-07T05:16:46.501Z,935.15
2018-03-07T05:17:46.462Z,935.11
2018-03-07T05:18:46.527Z,935.13
2018-03-07T05:19:46.494Z,935.17
2018-03-07T05:20:46.508Z,935.14
2018-03-07T05:21:46.524Z,935.15
2018-03-07T05:22:46.540Z,935.19
2018-03-07T05:23:46.556Z,935.17
2018-03-07T05:24:46.568Z,935.17
2018-03-07T05:25:46.585Z,935.19
2018-03-07T05:26:46.600Z,935.18
2018-03-07T05:27:46.615Z,935.2
2018-03-07T05:28:46.636Z,935.18
2018-03-07T05:29:46.645Z,935.19
2018-03-07T05:30:46.660Z,935.17
2018-03-07T05:31:46.726Z,935.21
2018-03-07T05:32:46.692Z,935.23
2018-03-07T05:33:46.707Z,935.24
2018-03-07T05:34:46.721Z,935.22
2018-03-07T05:35:46.756Z,935.23
2018-03-07T05:36:46.753Z,935.24
2018-03-07T05:37:46.768Z,935.2
2018-03-07T05:38:46.786Z,935.23
2018-03-07T05:39:46.797Z,935.23
2018-03-07T05:40:46.815Z,935.23
2018-03-07T05:41:46.829Z,935.28
2018-03-07T05:42:46.843Z,935.29
2018-03-07T05:43:46.860Z,935.31
2018-03-07T05:44:46.875Z,935.3
2018-03-07T05:45:46.890Z,935.3
2018-03-07T05:46:46.958Z,935.32
2018-03-07T05:47:46.921Z,935.29
2018-03-07T05:48:46.937Z,935.33
2018-03-07T05:49:46.952Z,935.42
2018-03-07T05:50:46.988Z,935.38
2018-03-07T05:51:46.982Z,935.34
2018-03-07T05:52:46.997Z,935.35
2018-03-07T05:53:47.012Z,935.37
2018-03-07T05:54:47.026Z,935.41
2018-03-07T05:55:47.043Z,935.38
2018-03-07T05:56:47.058Z,935.43
2018-03-07T05:57:47.072Z,935.45
2018-03-07T05:58:47.088Z,935.48
2018-03-07T05:59:47.105Z,935.49
2018-03-07T06:00:47.117Z,935.56
2018-03-07T06:01:47.183Z,935.49
2018-03-07T06:02:47.148Z,935.56
2018-03-07T06:03:47.163Z,935.58
2018-03-07T06:04:47.179Z,935.59
2018-03-07T06:05:47.192Z,935.63
2018-03-07T06:06:47.209Z,935.62
2018-03-07T06:07:47.223Z,935.65
2018-03-07T06:08:47.238Z,935.66
2018-03-07T06:09:47.254Z,935.69
2018-03-07T06:10:47.269Z,935.68
2018-03-07T06:11:47.284Z,935.71
2018-03-07T06:12:47.302Z,935.71
2018-03-07T06:13:47.316Z,935.68
2018-03-07T06:14:47.329Z,935.71
2018-03-07T06:15:47.346Z,935.73
2018-03-07T06:16:47.410Z,935.73
2018-03-07T06:17:47.375Z,935.73
2018-03-07T06:18:47.390Z,935.73
2018-03-07T06:19:47.407Z,935.76
2018-03-07T06:20:47.421Z,935.74
2018-03-07T06:21:47.445Z,935.74
2018-03-07T06:22:47.451Z,935.77
2018-03-07T06:23:47.468Z,935.72
2018-03-07T06:24:47.483Z,935.78
2018-03-07T06:25:47.497Z,935.77
2018-03-07T06:26:47.517Z,935.78
2018-03-07T06:27:47.528Z,935.77
2018-03-07T06:28:47.544Z,935.79
2018-03-07T06:29:47.557Z,935.85
2018-03-07T06:30:47.574Z,935.82
2018-03-07T06:31:47.639Z,935.82
2018-03-07T06:32:47.603Z,935.87
2018-03-07T06:33:47.620Z,935.85
2018-03-07T06:34:47.634Z,935.93
2018-03-07T06:35:47.652Z,935.94
2018-03-07T06:36:47.666Z,935.9
2018-03-07T06:37:47.682Z,935.94
2018-03-07T06:38:47.695Z,935.96
2018-03-07T06:39:47.711Z,936.01
2018-03-07T06:40:47.726Z,935.98
2018-03-07T06:41:47.756Z,936.02
2018-03-07T06:42:47.759Z,936.02
2018-03-07T06:43:47.774Z,936.06
2018-03-07T06:44:47.790Z,936.02
2018-03-07T06:45:47.803Z,936.08
2018-03-07T06:46:47.869Z,936.07
2018-03-07T06:47:47.836Z,936.07
2018-03-07T06:48:47.850Z,936.13
2018-03-07T06:49:47.867Z,936.13
2018-03-07T06:50:47.879Z,936.17
2018-03-07T06:51:47.895Z,936.12
2018-03-07T06:52:47.915Z,936.15
2018-03-07T06:53:47.926Z,936.15
2018-03-07T06:54:47.940Z,936.18
2018-03-07T06:55:47.968Z,936.2
2018-03-07T06:56:47.973Z,936.26
2018-03-07T06:57:47.989Z,936.28
2018-03-07T06:58:48.002Z,936.29
2018-03-07T06:59:48.019Z,936.33
2018-03-07T07:00:48.034Z,936.33
2018-03-07T07:01:48.099Z,936.31
2018-03-07T07:02:48.064Z,936.35
2018-03-07T07:03:48.081Z,936.32
2018-03-07T07:04:48.099Z,936.35
2018-03-07T07:05:48.111Z,936.38
2018-03-07T07:06:48.126Z,936.38
2018-03-07T07:07:48.140Z,936.39
2018-03-07T07:08:48.156Z,936.41
2018-03-07T07:09:48.172Z,936.45
2018-03-07T07:10:48.189Z,936.47
2018-03-07T07:11:48.203Z,936.47
2018-03-07T07:12:48.218Z,936.51
2018-03-07T07:13:48.233Z,936.54
2018-03-07T07:14:48.252Z,936.54
2018-03-07T07:15:48.264Z,936.56
2018-03-07T07:16:48.346Z,936.53
2018-03-07T07:17:48.300Z,936.57
2018-03-07T07:18:48.311Z,936.62
2018-03-07T07:19:48.328Z,936.65
2018-03-07T07:20:48.342Z,936.65
2018-03-07T07:21:48.356Z,936.66
2018-03-07T07:22:48.373Z,936.69
2018-03-07T07:23:48.388Z,936.71
2018-03-07T07:24:48.407Z,936.7
2018-03-07T07:25:48.421Z,936.74
2018-03-07T07:26:48.436Z,936.79
2018-03-07T07:27:48.451Z,936.83
2018-03-07T07:28:48.466Z,936.84
2018-03-07T07:29:48.483Z,936.77
2018-03-07T07:30:48.498Z,936.82
2018-03-07T07:31:48.517Z,936.84
2018-03-07T07:32:48.531Z,936.8
2018-03-07T07:33:48.546Z,936.83
2018-03-07T07:34:48.611Z,936.85
2018-03-07T07:35:48.577Z,936.89
2018-03-07T07:36:48.594Z,936.85
2018-03-07T07:37:48.610Z,936.93
2018-03-07T07:38:48.626Z,936.88
2018-03-07T07:39:48.646Z,936.93
2018-03-07T07:40:48.660Z,936.9
2018-03-07T07:41:48.675Z,936.89
2018-03-07T07:42:48.694Z,936.84
2018-03-07T07:43:48.703Z,936.86
2018-03-07T07:44:48.722Z,936.87
2018-03-07T07:45:48.736Z,936.84
2018-03-07T07:46:48.751Z,936.91
2018-03-07T07:47:48.766Z,936.87
2018-03-07T07:48:48.784Z,936.91
2018-03-07T07:49:48.850Z,936.9
2018-03-07T07:50:48.814Z,936.92
2018-03-07T07:51:48.831Z,936.86
2018-03-07T07:52:48.850Z,936.92
2018-03-07T07:53:48.863Z,936.96
2018-03-07T07:54:48.880Z,937.02
2018-03-07T07:55:48.898Z,936.95
2018-03-07T07:56:48.910Z,937.03
2018-03-07T07:57:48.927Z,936.98
2018-03-07T07:58:48.947Z,937.02
2018-03-07T07:59:48.959Z,937.04
2018-03-07T08:00:48.975Z,937.07
2018-03-07T08:01:48.992Z,937.14
2018-03-07T08:02:49.009Z,937.16
2018-03-07T08:03:49.026Z,937.08
2018-03-07T08:04:49.090Z,937.12
2018-03-07T08:05:49.057Z,937.1
2018-03-07T08:06:49.076Z,937.17
2018-03-07T08:07:49.089Z,937.19
2018-03-07T08:08:49.105Z,937.13
2018-03-07T08:09:49.123Z,937.17
2018-03-07T08:10:49.140Z,937.26
2018-03-07T08:11:49.157Z,937.21
2018-03-07T08:12:49.174Z,937.24
2018-03-07T08:13:49.190Z,937.23
2018-03-07T08:14:49.207Z,937.25
2018-03-07T08:15:49.222Z,937.24
2018-03-07T08:16:49.239Z,937.36
2018-03-07T08:17:49.258Z,937.29
2018-03-07T08:18:49.272Z,937.32
2018-03-07T08:19:49.340Z,937.35
2018-03-07T08:20:49.305Z,937.37
2018-03-07T08:21:49.331Z,937.39
2018-03-07T08:22:49.340Z,937.47
2018-03-07T08:23:49.358Z,937.44
2018-03-07T08:24:49.375Z,937.48
2018-03-07T08:25:49.391Z,937.44
2018-03-07T08:26:49.407Z,937.58
2018-03-07T08:27:49.430Z,937.54
2018-03-07T08:28:49.444Z,937.55
2018-03-07T08:29:49.460Z,937.56
2018-03-07T08:30:49.478Z,937.62
2018-03-07T08:31:49.513Z,937.6
2018-03-07T08:32:49.511Z,937.57
2018-03-07T08:33:49.530Z,937.62
2018-03-07T08:34:49.596Z,937.58
2018-03-07T08:35:49.568Z,937.57
2018-03-07T08:36:49.580Z,937.56
2018-03-07T08:37:49.597Z,937.69
2018-03-07T08:38:49.616Z,937.57
2018-03-07T08:39:49.634Z,937.63
2018-03-07T08:40:49.650Z,937.61
2018-03-07T08:41:49.667Z,937.55
2018-03-07T08:42:49.688Z,937.59
2018-03-07T08:43:49.704Z,937.6
2018-03-07T08:44:50.021Z,937.55
2018-03-07T08:45:49.738Z,937.58
2018-03-07T08:46:49.763Z,937.62
2018-03-07T08:47:49.772Z,937.57
2018-03-07T08:48:49.790Z,937.65
2018-03-07T08:49:49.808Z,937.56
2018-03-07T08:50:49.829Z,937.59
2018-03-07T08:51:49.842Z,937.63
2018-03-07T08:52:49.860Z,937.59
2018-03-07T08:53:49.880Z,937.6
2018-03-07T08:54:49.921Z,937.63
2018-03-07T08:55:49.911Z,937.61
2018-03-07T08:56:49.928Z,937.63
2018-03-07T08:57:49.947Z,937.62
2018-03-07T08:58:49.962Z,937.6
2018-03-07T08:59:50.030Z,937.65
2018-03-07T09:00:49.999Z,937.68
2018-03-07T09:01:50.015Z,937.68
2018-03-07T09:02:50.033Z,937.7
2018-03-07T09:03:50.048Z,937.62
2018-03-07T09:04:50.074Z,937.69
2018-03-07T09:05:50.085Z,937.69
2018-03-07T09:06:50.101Z,937.75
2018-03-07T09:07:50.118Z,937.69
2018-03-07T09:08:50.148Z,937.67
2018-03-07T09:09:50.153Z,937.69
2018-03-07T09:10:50.171Z,937.75
2018-03-07T09:11:50.188Z,937.75
2018-03-07T09:12:50.206Z,937.79
2018-03-07T09:13:50.223Z,937.7
2018-03-07T09:14:50.290Z,937.79
2018-03-07T09:15:50.257Z,937.76
2018-03-07T09:16:50.274Z,937.85
2018-03-07T09:17:50.290Z,937.85
2018-03-07T09:18:50.313Z,937.88
2018-03-07T09:19:50.326Z,937.87
2018-03-07T09:20:50.342Z,937.83
2018-03-07T09:21:50.362Z,937.91
2018-03-07T09:22:50.395Z,937.9
2018-03-07T09:23:50.400Z,937.91
2018-03-07T09:24:50.413Z,937.95
2018-03-07T09:25:50.433Z,937.89
2018-03-07T09:26:50.450Z,938.16
2018-03-07T09:27:50.475Z,937.92
2018-03-07T09:28:50.486Z,938.04
2018-03-07T09:29:50.553Z,937.95
2018-03-07T09:30:50.522Z,937.92
2018-03-07T09:31:50.538Z,937.87
2018-03-07T09:32:50.556Z,938.01
2018-03-07T09:33:50.574Z,938.01
2018-03-07T09:34:50.594Z,937.97
2018-03-07T09:35:50.610Z,937.98
2018-03-07T09:36:50.630Z,938.09
2018-03-07T09:37:50.648Z,938.03
2018-03-07T09:38:50.669Z,938
2018-03-07T09:39:50.683Z,938.08
2018-03-07T09:40:50.704Z,938.1
2018-03-07T09:41:50.722Z,938.1
2018-03-07T09:42:50.740Z,938.14
2018-03-07T09:43:50.759Z,938.12
2018-03-07T09:44:50.828Z,938.13
2018-03-07T09:45:50.797Z,938.09
2018-03-07T09:46:50.815Z,938.13
2018-03-07T09:47:50.833Z,938.19
2018-03-07T09:48:50.852Z,938.19
2018-03-07T09:49:50.872Z,938.2
2018-03-07T09:50:50.891Z,938.23
2018-03-07T09:51:50.911Z,938.19
2018-03-07T09:52:50.930Z,938.27
2018-03-07T09:53:50.948Z,938.2
2018-03-07T09:54:50.968Z,938.39
2018-03-07T09:55:50.989Z,938.36
2018-03-07T09:56:51.006Z,938.37
2018-03-07T09:57:51.024Z,938.34
2018-03-07T09:58:51.044Z,938.37
2018-03-07T09:59:51.063Z,938.43
2018-03-07T10:00:51.082Z,938.39
2018-03-07T10:01:51.152Z,938.28
2018-03-07T10:02:51.126Z,938.32
2018-03-07T10:03:51.142Z,938.36
2018-03-07T10:04:51.158Z,938.44
2018-03-07T10:05:51.178Z,938.35
2018-03-07T10:06:51.208Z,938.5
2018-03-07T10:07:51.218Z,938.35
2018-03-07T10:08:51.237Z,938.3
2018-03-07T10:09:51.254Z,938.4
2018-03-07T10:10:51.274Z,938.36
2018-03-07T10:11:51.292Z,938.5
2018-03-07T10:12:51.313Z,938.43
2018-03-07T10:13:51.331Z,938.43
2018-03-07T10:14:51.350Z,938.54
2018-03-07T10:15:51.370Z,938.54
2018-03-07T10:16:51.441Z,938.53
2018-03-07T10:17:51.409Z,938.56
2018-03-07T10:18:51.428Z,938.54
2018-03-07T10:19:51.448Z,938.49
2018-03-07T10:20:51.527Z,938.5
2018-03-07T10:21:51.488Z,938.47
2018-03-07T10:22:51.512Z,938.52
2018-03-07T10:23:51.527Z,938.53
2018-03-07T10:24:51.547Z,938.48
2018-03-07T10:25:51.567Z,938.49
2018-03-07T10:26:51.585Z,938.46
2018-03-07T10:27:51.610Z,938.52
2018-03-07T10:28:51.626Z,938.57
2018-03-07T10:29:51.646Z,938.5
2018-03-07T10:30:51.664Z,938.5
2018-03-07T10:31:51.734Z,938.56
2018-03-07T10:32:51.704Z,938.52
2018-03-07T10:33:51.721Z,938.55
2018-03-07T10:34:51.746Z,938.55
2018-03-07T10:35:51.761Z,938.6
2018-03-07T10:36:51.780Z,938.58
2018-03-07T10:37:51.842Z,938.65
2018-03-07T10:38:51.816Z,938.69
2018-03-07T10:39:51.837Z,938.73
2018-03-07T10:40:51.855Z,938.72
2018-03-07T10:41:51.874Z,938.72
2018-03-07T10:42:51.893Z,938.74
2018-03-07T10:43:51.912Z,938.78
2018-03-07T10:44:51.930Z,938.81
2018-03-07T10:45:51.950Z,938.79
2018-03-07T10:46:51.968Z,938.78
2018-03-07T10:47:52.137Z,938.76
2018-03-07T10:48:52.005Z,938.86
2018-03-07T10:49:52.025Z,938.84
2018-03-07T10:50:52.042Z,938.82
2018-03-07T10:51:52.062Z,938.84
2018-03-07T10:52:52.078Z,938.81
2018-03-07T10:53:52.098Z,938.8
2018-03-07T10:54:52.117Z,938.82
2018-03-07T10:55:52.135Z,938.84
2018-03-07T10:56:52.153Z,938.87
2018-03-07T10:57:52.172Z,938.88
2018-03-07T10:58:52.190Z,938.85
2018-03-07T10:59:52.210Z,938.95
2018-03-07T11:00:52.229Z,938.77
2018-03-07T11:01:52.247Z,938.83
2018-03-07T11:02:52.317Z,938.85
2018-03-07T11:03:52.299Z,938.87
2018-03-07T11:04:52.305Z,938.82
2018-03-07T11:05:52.321Z,938.82
2018-03-07T11:06:52.341Z,938.87
2018-03-07T11:07:52.360Z,938.93
2018-03-07T11:08:52.382Z,938.84
2018-03-07T11:09:52.400Z,938.88
2018-03-07T11:10:52.417Z,938.88
2018-03-07T11:11:52.436Z,938.88
2018-03-07T11:12:52.458Z,938.86
2018-03-07T11:13:52.482Z,938.92
2018-03-07T11:14:52.495Z,938.8
2018-03-07T11:15:52.514Z,938.82
2018-03-07T11:16:52.533Z,938.78
2018-03-07T11:17:52.601Z,938.84
2018-03-07T11:18:52.570Z,938.77
2018-03-07T11:19:52.591Z,938.79
2018-03-07T11:20:52.611Z,938.86
2018-03-07T11:21:52.628Z,938.92
2018-03-07T11:22:52.698Z,939.02
2018-03-07T11:23:52.668Z,938.93
2018-03-07T11:24:52.687Z,938.96
2018-03-07T11:25:52.707Z,938.95
2018-03-07T11:26:52.728Z,938.95
2018-03-07T11:27:52.751Z,939.07
2018-03-07T11:28:52.771Z,938.84
2018-03-07T11:29:52.792Z,938.82
2018-03-07T11:30:52.814Z,938.8
2018-03-07T11:31:52.837Z,939.08
2018-03-07T11:32:52.908Z,938.88
2018-03-07T11:33:52.880Z,939.02
2018-03-07T11:34:52.900Z,938.97
2018-03-07T11:35:52.926Z,939.2
2018-03-07T11:36:52.949Z,939.05
2018-03-07T11:37:52.971Z,939.03
2018-03-07T11:38:52.997Z,938.87
2018-03-07T11:39:53.018Z,938.9
2018-03-07T11:40:53.043Z,938.9
2018-03-07T11:41:53.068Z,938.86
2018-03-07T11:42:53.093Z,939.14
2018-03-07T11:43:53.116Z,938.99
2018-03-07T11:44:53.143Z,938.93
2018-03-07T11:45:53.167Z,938.89
2018-03-07T11:46:53.211Z,938.91
2018-03-07T11:47:53.266Z,939.07
2018-03-07T11:48:53.241Z,939.03
2018-03-07T11:49:53.266Z,938.98
2018-03-07T11:50:53.287Z,939.18
2018-03-07T11:51:53.310Z,938.92
2018-03-07T11:52:53.337Z,939.01
2018-03-07T11:53:53.357Z,939.01
2018-03-07T11:54:53.378Z,939.03
2018-03-07T11:55:53.402Z,938.93
2018-03-07T11:56:53.425Z,938.86
2018-03-07T11:57:53.448Z,938.87
2018-03-07T11:58:53.473Z,938.96
2018-03-07T11:59:53.493Z,938.94
2018-03-07T12:00:53.517Z,938.98
2018-03-07T12:01:53.538Z,938.95
2018-03-07T12:02:53.560Z,939.28
2018-03-07T12:03:53.633Z,939.33
2018-03-07T12:04:53.604Z,939.48
2018-03-07T12:05:53.628Z,939.16
2018-03-07T12:06:53.651Z,939.2
2018-03-07T12:07:53.675Z,939.12
2018-03-07T12:08:53.695Z,939.06
2018-03-07T12:09:53.720Z,939.23
2018-03-07T12:10:53.741Z,939.37
2018-03-07T12:11:53.764Z,939.43
2018-03-07T12:12:53.788Z,939.39
2018-03-07T12:13:53.813Z,939.02
2018-03-07T12:14:53.834Z,939.47
2018-03-07T12:15:53.873Z,939.35
2018-03-07T12:16:53.883Z,939.02
2018-03-07T12:17:53.909Z,939.03
2018-03-07T12:18:53.982Z,939.41
2018-03-07T12:19:53.961Z,939.04
2018-03-07T12:20:53.982Z,939.44
2018-03-07T12:21:54.010Z,939.06
2018-03-07T12:22:54.032Z,939.3
2018-03-07T12:23:54.057Z,939.13
2018-03-07T12:24:54.083Z,938.99
2018-03-07T12:25:54.109Z,939.35
2018-03-07T12:26:54.133Z,939.27
2018-03-07T12:27:54.159Z,939.13
2018-03-07T12:28:54.184Z,939.23
2018-03-07T12:29:54.211Z,939.35
2018-03-07T12:30:54.236Z,939.48
2018-03-07T12:31:54.264Z,939.41
2018-03-07T12:32:54.318Z,939.39
2018-03-07T12:33:54.464Z,939.43
2018-03-07T12:34:54.340Z,939.54
2018-03-07T12:35:54.368Z,939.24
2018-03-07T12:36:54.394Z,939.41
2018-03-07T12:37:54.421Z,939.4
2018-03-07T12:38:54.448Z,939.32
2018-03-07T12:39:54.478Z,939.37
2018-03-07T12:40:54.506Z,939.44
2018-03-07T12:41:54.532Z,938.9
2018-03-07T12:42:54.559Z,938.97
2018-03-07T12:43:54.587Z,939.04
2018-03-07T12:44:54.618Z,938.94
2018-03-07T12:45:54.640Z,938.84
2018-03-07T12:46:54.677Z,938.84
2018-03-07T12:47:54.695Z,938.98